McArthur, Arkansas
Current Conditions -  °F | °C
As of 1:53 PM on Friday 31 Oct 2014 (Local Time) from KLLQ Reporting Station
Few Clouds Few Clouds  
Wind Chill: 63°   Ceiling: Unl
Heat Index: 63°   Visibility: 10mi
Dew Point: 42°   Wind: 12mph
Humidity: 46%   Direction: 360°N
Pressure: 30.16"   Gusts: 20mph
Location:  33.6386°N, 91.3646°W
Report Text: KLLQ 311853Z AUTO 36010G17KT 320V020 10SM FEW044 17/06 A3016 RMK AO2 SLP213 T01720056
Loading
Personal Weather Stations






























Interactive Weather Map
Tropical Storm Tracking
New forecast layout! Learn more

10-Day Weather Forecast

Advertisements
Track Severe Weather on mobile